createdAt,value
2019-01-17T00:00:15.478Z,8.55
2019-01-17T00:02:48.257Z,6.60
2019-01-17T00:05:18.375Z,9.60
2019-01-17T00:08:06.405Z,6.90
2019-01-17T00:10:45.250Z,13.70
2019-01-17T00:13:30.584Z,11.48
2019-01-17T00:16:06.596Z,7.37
2019-01-17T00:18:42.494Z,9.73
2019-01-17T00:21:27.327Z,9.30
2019-01-17T00:24:03.392Z,8.15
2019-01-17T00:26:42.499Z,9.15
2019-01-17T00:29:12.548Z,12.10
2019-01-17T00:31:48.549Z,11.43
2019-01-17T00:34:21.385Z,11.75
2019-01-17T00:37:03.615Z,9.38
2019-01-17T00:39:33.696Z,9.30
2019-01-17T00:42:09.757Z,8.38
2019-01-17T00:44:42.547Z,8.33
2019-01-17T00:47:15.788Z,11.63
2019-01-17T00:49:45.851Z,7.92
2019-01-17T00:52:30.953Z,9.73
2019-01-17T00:55:16.327Z,10.00
2019-01-17T00:57:49.334Z,10.32
2019-01-17T01:00:19.423Z,9.35
2019-01-17T01:02:58.964Z,17.37
2019-01-17T01:05:29.156Z,6.15
2019-01-17T01:08:11.181Z,8.70
2019-01-17T01:10:44.198Z,7.37
2019-01-17T01:13:14.240Z,7.90
2019-01-17T01:16:03.512Z,8.88
2019-01-17T01:18:36.604Z,13.32
2019-01-17T01:21:18.859Z,9.98
2019-01-17T01:23:48.996Z,4.67
2019-01-17T01:26:19.118Z,6.83
2019-01-17T01:28:49.173Z,4.55
2019-01-17T01:31:22.222Z,7.12
2019-01-17T01:34:01.334Z,7.90
2019-01-17T01:36:31.480Z,5.90
2019-01-17T01:39:04.744Z,8.28
2019-01-17T01:41:37.446Z,5.03
2019-01-17T01:44:16.661Z,6.00
2019-01-17T01:46:49.786Z,5.85
2019-01-17T01:49:25.843Z,5.35
2019-01-17T01:51:55.892Z,6.40
2019-01-17T01:54:24.286Z,5.62
2019-01-17T01:56:52.813Z,6.20
2019-01-17T01:59:21.208Z,5.62
2019-01-17T02:01:49.658Z,9.43
2019-01-17T02:04:18.063Z,6.62
2019-01-17T02:06:46.716Z,6.97
2019-01-17T02:09:15.127Z,6.75
2019-01-17T02:11:43.548Z,4.60
2019-01-17T02:14:12.031Z,7.08
2019-01-17T02:16:40.437Z,6.12
2019-01-17T02:19:08.844Z,8.28
2019-01-17T02:21:37.400Z,3.83
2019-01-17T02:24:05.909Z,4.87
2019-01-17T02:26:34.597Z,4.62
2019-01-17T02:29:03.034Z,5.35
2019-01-17T02:31:31.449Z,4.80
2019-01-17T02:33:59.877Z,5.60
2019-01-17T02:36:28.610Z,5.15
2019-01-17T02:38:57.016Z,6.20
2019-01-17T02:41:25.414Z,6.95
2019-01-17T02:43:53.881Z,3.77
2019-01-17T02:46:22.323Z,4.05
2019-01-17T02:48:50.787Z,4.10
2019-01-17T02:51:19.509Z,5.62
2019-01-17T02:53:47.916Z,4.35
2019-01-17T02:56:16.423Z,8.98
2019-01-17T02:58:44.834Z,3.20
2019-01-17T03:01:13.252Z,3.05
2019-01-17T03:03:41.930Z,3.40
2019-01-17T03:06:10.321Z,3.62
2019-01-17T03:08:38.716Z,3.33
2019-01-17T03:11:07.122Z,2.85
2019-01-17T03:13:35.580Z,5.08
2019-01-17T03:16:04.128Z,5.45
2019-01-17T03:18:32.797Z,4.85
2019-01-17T03:21:01.212Z,5.62
2019-01-17T03:23:29.704Z,7.35
2019-01-17T03:25:58.108Z,5.65
2019-01-17T03:28:26.501Z,8.30
2019-01-17T03:30:54.959Z,4.83
2019-01-17T03:33:23.358Z,5.30
2019-01-17T03:35:51.774Z,5.80
2019-01-17T03:38:20.175Z,7.92
2019-01-17T03:40:48.612Z,12.13
2019-01-17T03:43:17.012Z,7.00
2019-01-17T03:45:45.429Z,6.17
2019-01-17T03:48:13.867Z,5.03
2019-01-17T03:50:45.012Z,5.05
2019-01-17T03:53:13.652Z,5.10
2019-01-17T03:55:42.227Z,5.78
2019-01-17T03:58:10.917Z,3.98
2019-01-17T04:00:39.346Z,3.77
2019-01-17T04:03:07.751Z,7.72
2019-01-17T04:05:36.148Z,4.08
2019-01-17T04:08:04.788Z,3.98
2019-01-17T04:10:33.245Z,4.78
2019-01-17T04:13:02.522Z,5.12
2019-01-17T04:15:31.159Z,4.60
2019-01-17T04:17:59.939Z,5.87
2019-01-17T04:20:28.337Z,2.65
2019-01-17T04:22:56.748Z,2.67
2019-01-17T04:25:25.151Z,3.05
2019-01-17T04:27:53.574Z,2.52
2019-01-17T04:30:22.114Z,2.10
2019-01-17T04:32:50.537Z,4.83
2019-01-17T04:35:18.954Z,2.55
2019-01-17T04:37:47.851Z,1.67
2019-01-17T04:40:16.485Z,1.65
2019-01-17T04:42:44.900Z,2.00
2019-01-17T04:45:14.359Z,1.72
2019-01-17T04:47:42.855Z,2.55
2019-01-17T04:50:13.481Z,4.70
2019-01-17T04:52:42.125Z,2.08
2019-01-17T04:55:12.562Z,3.20
2019-01-17T04:57:41.131Z,2.20
2019-01-17T05:00:17.929Z,3.42
2019-01-17T05:02:46.587Z,1.85
2019-01-17T05:05:15.123Z,2.50
2019-01-17T05:07:43.605Z,2.05
2019-01-17T05:10:14.554Z,1.45
2019-01-17T05:12:43.188Z,1.52
2019-01-17T05:15:12.135Z,1.70
2019-01-17T05:17:40.831Z,2.20
2019-01-17T05:20:12.923Z,1.75
2019-01-17T05:22:41.344Z,2.17
2019-01-17T05:25:12.596Z,1.85
2019-01-17T05:27:40.110Z,1.20
2019-01-17T05:30:16.680Z,1.70
2019-01-17T05:32:45.099Z,1.65
2019-01-17T05:35:14.369Z,2.70
2019-01-17T05:37:42.787Z,2.52
2019-01-17T05:40:19.199Z,4.20
2019-01-17T05:42:47.704Z,1.98
2019-01-17T05:45:16.503Z,5.45
2019-01-17T05:47:44.898Z,1.62
2019-01-17T05:50:15.950Z,2.20
2019-01-17T05:52:44.626Z,2.12
2019-01-17T05:55:19.482Z,1.60
2019-01-17T05:57:43.243Z,1.60
2019-01-17T06:00:17.250Z,1.60
2019-01-17T06:02:45.653Z,2.42
2019-01-17T06:05:14.997Z,8.28
2019-01-17T06:07:43.414Z,4.62
2019-01-17T06:10:12.563Z,2.95
2019-01-17T06:12:41.209Z,2.92
2019-01-17T06:15:12.164Z,2.37
2019-01-17T06:17:40.639Z,2.80
2019-01-17T06:20:12.796Z,2.85
2019-01-17T06:22:41.187Z,2.10
2019-01-17T06:25:09.580Z,4.08
2019-01-17T06:27:38.258Z,1.87
2019-01-17T06:30:09.781Z,1.70
2019-01-17T06:32:38.179Z,1.77
2019-01-17T06:35:08.526Z,1.85
2019-01-17T06:37:37.198Z,2.08
2019-01-17T06:40:11.480Z,2.15
2019-01-17T06:42:39.900Z,1.52
2019-01-17T06:45:08.319Z,0.82
2019-01-17T06:47:36.723Z,1.72
2019-01-17T06:50:08.570Z,1.40
2019-01-17T06:52:36.991Z,1.30
2019-01-17T06:55:06.581Z,4.17
2019-01-17T06:57:34.991Z,1.82
2019-01-17T07:00:05.684Z,2.15
2019-01-17T07:02:34.099Z,2.55
2019-01-17T07:05:02.508Z,2.62
2019-01-17T07:07:30.996Z,3.75
2019-01-17T07:09:59.408Z,3.42
2019-01-17T07:12:27.813Z,3.40
2019-01-17T07:14:56.461Z,5.92
2019-01-17T07:17:24.875Z,4.90
2019-01-17T07:19:53.330Z,3.87
2019-01-17T07:22:21.739Z,3.77
2019-01-17T07:24:50.240Z,4.50
2019-01-17T07:27:18.635Z,2.83
2019-01-17T07:29:47.036Z,2.50
2019-01-17T07:32:15.456Z,3.90
2019-01-17T07:34:43.876Z,4.17
2019-01-17T07:37:12.400Z,2.52
2019-01-17T07:39:40.828Z,3.42
2019-01-17T07:42:09.264Z,4.15
2019-01-17T07:44:37.677Z,4.03
2019-01-17T07:47:06.078Z,2.40
2019-01-17T07:49:34.481Z,2.45
2019-01-17T07:52:02.978Z,2.80
2019-01-17T07:54:32.119Z,2.50
2019-01-17T07:57:00.532Z,2.70
2019-01-17T07:59:28.934Z,2.80
2019-01-17T08:01:57.604Z,4.67
2019-01-17T08:04:26.056Z,4.95
2019-01-17T08:06:56.848Z,2.90
2019-01-17T08:09:24.668Z,2.70
2019-01-17T08:11:53.324Z,2.33
2019-01-17T08:14:21.804Z,3.55
2019-01-17T08:16:50.528Z,2.08
2019-01-17T08:19:18.932Z,3.22
2019-01-17T08:21:47.364Z,3.92
2019-01-17T08:24:16.028Z,2.60
2019-01-17T08:26:44.477Z,2.30
2019-01-17T08:29:12.899Z,2.75
2019-01-17T08:31:41.294Z,2.17
2019-01-17T08:34:09.955Z,3.60
2019-01-17T08:36:38.355Z,2.40
2019-01-17T08:39:08.324Z,3.10
2019-01-17T08:41:36.719Z,3.15
2019-01-17T08:44:05.476Z,2.98
2019-01-17T08:46:33.885Z,1.95
2019-01-17T08:49:02.452Z,1.77
2019-01-17T08:51:30.874Z,1.25
2019-01-17T08:53:59.272Z,1.20
2019-01-17T08:56:27.676Z,1.00
2019-01-17T08:58:56.348Z,1.13
2019-01-17T09:01:24.790Z,1.10
2019-01-17T09:03:53.457Z,1.47
2019-01-17T09:06:22.116Z,0.93
2019-01-17T09:08:50.544Z,0.90
2019-01-17T09:11:19.023Z,1.27
2019-01-17T09:13:47.458Z,0.77
2019-01-17T09:16:15.859Z,1.37
2019-01-17T09:18:44.275Z,1.57
2019-01-17T09:21:12.921Z,1.27
2019-01-17T09:23:41.345Z,2.27
2019-01-17T09:26:09.783Z,0.75
2019-01-17T09:28:38.460Z,0.85
2019-01-17T09:31:06.881Z,0.80
2019-01-17T09:33:35.283Z,1.02
2019-01-17T09:36:03.836Z,0.85
2019-01-17T09:38:32.310Z,2.00
2019-01-17T09:41:01.019Z,2.83
2019-01-17T09:43:29.456Z,2.20
2019-01-17T09:45:57.876Z,1.42
2019-01-17T09:48:26.303Z,0.80
2019-01-17T09:50:54.752Z,0.70
2019-01-17T09:53:23.219Z,0.90
2019-01-17T09:55:51.753Z,1.02
2019-01-17T09:58:20.392Z,0.80
2019-01-17T10:00:48.797Z,1.57
2019-01-17T10:03:17.194Z,4.62
2019-01-17T10:05:45.609Z,1.12
2019-01-17T10:08:14.042Z,3.00
2019-01-17T10:10:42.675Z,8.40
2019-01-17T10:13:11.080Z,0.50
2019-01-17T10:15:51.546Z,4.10
2019-01-17T10:18:31.604Z,0.60
2019-01-17T10:21:06.043Z,2.08
2019-01-17T10:23:43.317Z,0.90
2019-01-17T10:26:23.630Z,1.55
2019-01-17T10:28:57.925Z,1.95
2019-01-17T10:31:45.699Z,1.40
2019-01-17T10:34:33.518Z,2.33
2019-01-17T10:37:08.028Z,0.88
2019-01-17T10:39:51.976Z,1.12
2019-01-17T10:42:29.406Z,1.40
2019-01-17T10:45:01.157Z,4.03
2019-01-17T10:48:00.191Z,2.02
2019-01-17T10:50:55.979Z,4.08
2019-01-17T10:53:30.464Z,3.30
2019-01-17T10:56:30.729Z,0.70
2019-01-17T10:59:02.256Z,1.47
2019-01-17T11:01:48.715Z,2.12
2019-01-17T11:04:25.756Z,1.40
2019-01-17T11:07:05.471Z,0.80
2019-01-17T11:09:45.756Z,1.05
2019-01-17T11:12:19.846Z,6.30
2019-01-17T11:14:54.242Z,1.32
2019-01-17T11:17:47.008Z,1.00
2019-01-17T11:20:34.836Z,2.45
2019-01-17T11:23:18.133Z,0.95
2019-01-17T11:25:52.280Z,0.85
2019-01-17T11:28:29.542Z,2.20
2019-01-17T11:31:28.027Z,1.25
2019-01-17T11:34:17.428Z,1.77
2019-01-17T11:37:00.876Z,1.07
2019-01-17T11:39:50.602Z,1.05
2019-01-17T11:42:28.024Z,3.45
2019-01-17T11:45:14.526Z,0.60
2019-01-17T11:47:51.820Z,1.25
2019-01-17T11:50:28.790Z,0.70
2019-01-17T11:53:15.212Z,0.82
2019-01-17T11:55:52.367Z,0.93
2019-01-17T11:58:46.536Z,4.00
2019-01-17T12:01:28.666Z,1.40
2019-01-17T12:04:05.347Z,1.77
2019-01-17T12:06:33.780Z,0.40
2019-01-17T12:09:02.211Z,0.62
2019-01-17T12:11:30.632Z,0.60
2019-01-17T12:13:59.051Z,0.60
2019-01-17T12:16:27.688Z,1.62
2019-01-17T12:18:56.094Z,0.50
2019-01-17T12:21:24.524Z,0.60
2019-01-17T12:23:52.932Z,0.57
2019-01-17T12:26:21.339Z,1.35
2019-01-17T12:28:49.763Z,0.60
2019-01-17T12:31:18.179Z,0.65
2019-01-17T12:33:46.590Z,0.50
2019-01-17T12:36:14.995Z,0.68
2019-01-17T12:38:43.398Z,0.45
2019-01-17T12:41:11.794Z,0.62
2019-01-17T12:43:40.277Z,0.50
2019-01-17T12:46:08.755Z,0.47
2019-01-17T12:48:37.204Z,0.40
2019-01-17T12:51:05.675Z,0.85
2019-01-17T12:53:34.155Z,0.60
2019-01-17T12:56:02.816Z,0.40
2019-01-17T12:58:31.235Z,0.68
2019-01-17T13:00:59.633Z,0.50
2019-01-17T13:03:28.113Z,0.62
2019-01-17T13:05:56.641Z,0.50
2019-01-17T13:08:25.065Z,0.60
2019-01-17T13:10:53.692Z,0.45
2019-01-17T13:13:22.391Z,1.00
2019-01-17T13:15:50.813Z,0.50
2019-01-17T13:18:19.485Z,0.75
2019-01-17T13:20:48.004Z,0.53
2019-01-17T13:23:16.736Z,0.47
2019-01-17T13:25:45.403Z,2.05
2019-01-17T13:28:13.832Z,0.50
2019-01-17T13:30:42.315Z,0.50
2019-01-17T13:33:10.790Z,0.53
2019-01-17T13:35:39.192Z,0.60
2019-01-17T13:38:07.598Z,1.05
2019-01-17T13:40:36.157Z,1.07
2019-01-17T13:43:04.965Z,0.80
2019-01-17T13:45:33.387Z,0.68
2019-01-17T13:48:01.820Z,0.90
2019-01-17T13:50:30.504Z,0.78
2019-01-17T13:52:59.030Z,0.80
2019-01-17T13:55:27.453Z,1.02
2019-01-17T13:57:56.208Z,1.15
2019-01-17T14:00:25.387Z,1.10
2019-01-17T14:02:54.425Z,1.45
2019-01-17T14:05:22.826Z,1.65
2019-01-17T14:07:51.571Z,2.35
2019-01-17T14:10:20.630Z,1.45
2019-01-17T14:12:49.044Z,1.40
2019-01-17T14:15:25.689Z,1.72
2019-01-17T14:17:54.096Z,1.45
2019-01-17T14:20:22.512Z,1.55
2019-01-17T14:22:50.934Z,3.75
2019-01-17T14:25:19.598Z,2.20
2019-01-17T14:27:48.140Z,1.98
2019-01-17T14:30:22.369Z,6.55
2019-01-17T14:32:50.829Z,4.35
2019-01-17T14:35:19.328Z,1.70
2019-01-17T14:37:47.969Z,2.02
2019-01-17T14:40:16.426Z,2.30
2019-01-17T14:42:44.906Z,2.92
2019-01-17T14:45:19.030Z,1.67
2019-01-17T14:47:47.473Z,2.87
2019-01-17T14:50:22.311Z,2.02
2019-01-17T14:52:51.033Z,3.60
2019-01-17T14:55:19.696Z,3.50
2019-01-17T14:57:48.119Z,3.02
2019-01-17T15:00:21.958Z,5.10
2019-01-17T15:02:50.362Z,4.90
2019-01-17T15:05:18.779Z,3.75
2019-01-17T15:07:47.259Z,5.47
2019-01-17T15:10:24.679Z,6.10
2019-01-17T15:12:53.402Z,6.08
2019-01-17T15:15:21.996Z,6.22
2019-01-17T15:17:50.408Z,5.92
2019-01-17T15:20:20.700Z,7.58
2019-01-17T15:22:50.957Z,5.95
2019-01-17T15:25:19.373Z,6.25
2019-01-17T15:27:47.859Z,6.50
2019-01-17T15:30:18.934Z,6.65
2019-01-17T15:32:47.946Z,5.10
2019-01-17T15:35:16.740Z,6.70
2019-01-17T15:37:45.215Z,6.10
2019-01-17T15:40:16.955Z,5.10
2019-01-17T15:42:45.468Z,5.42
2019-01-17T15:45:13.852Z,7.40
2019-01-17T15:47:42.267Z,7.30
2019-01-17T15:50:13.856Z,5.97
2019-01-17T15:52:42.261Z,6.78
2019-01-17T15:55:13.024Z,6.60
2019-01-17T15:57:41.438Z,9.05
2019-01-17T16:00:22.364Z,6.33
2019-01-17T16:02:50.794Z,8.00
2019-01-17T16:05:19.298Z,7.72
2019-01-17T16:07:47.716Z,8.05
2019-01-17T16:10:16.570Z,7.75
2019-01-17T16:12:45.011Z,9.53
2019-01-17T16:15:16.201Z,8.38
2019-01-17T16:17:44.614Z,7.80
2019-01-17T16:20:15.404Z,10.60
2019-01-17T16:22:43.948Z,6.75
2019-01-17T16:25:14.432Z,9.18
2019-01-17T16:27:42.856Z,5.17
2019-01-17T16:30:14.692Z,7.53
2019-01-17T16:32:43.338Z,4.10
2019-01-17T16:35:12.272Z,5.67
2019-01-17T16:37:40.758Z,2.85
2019-01-17T16:40:11.551Z,3.00
2019-01-17T16:42:39.967Z,2.10
2019-01-17T16:45:11.375Z,3.05
2019-01-17T16:47:40.022Z,1.85
2019-01-17T16:50:17.140Z,2.58
2019-01-17T16:52:45.826Z,1.65
2019-01-17T16:55:15.126Z,5.45
2019-01-17T16:57:48.987Z,2.52
2019-01-17T17:00:16.972Z,2.20
2019-01-17T17:02:45.427Z,5.42
2019-01-17T17:05:15.265Z,3.72
2019-01-17T17:07:43.886Z,4.33
2019-01-17T17:10:14.782Z,11.12
2019-01-17T17:12:43.196Z,6.72
2019-01-17T17:15:11.771Z,3.62
2019-01-17T17:17:40.472Z,2.62
2019-01-17T17:20:15.079Z,4.30
2019-01-17T17:22:43.735Z,5.20
2019-01-17T17:25:12.285Z,3.70
2019-01-17T17:27:40.925Z,3.12
2019-01-17T17:30:12.446Z,6.72
2019-01-17T17:32:41.118Z,3.95
2019-01-17T17:35:09.915Z,6.50
2019-01-17T17:37:38.324Z,3.47
2019-01-17T17:40:18.259Z,12.95
2019-01-17T17:42:48.572Z,10.10
2019-01-17T17:45:16.976Z,5.42
2019-01-17T17:47:45.676Z,5.37
2019-01-17T17:50:15.903Z,4.30
2019-01-17T17:52:44.487Z,7.87
2019-01-17T17:55:16.959Z,5.70
2019-01-17T17:57:45.536Z,3.42
2019-01-17T18:00:26.454Z,9.50
2019-01-17T18:02:55.542Z,7.55
2019-01-17T18:05:24.275Z,5.83
2019-01-17T18:07:52.692Z,5.30
2019-01-17T18:10:21.099Z,2.70
2019-01-17T18:12:49.534Z,4.15
2019-01-17T18:15:19.451Z,3.40
2019-01-17T18:17:48.079Z,7.00
2019-01-17T18:20:17.618Z,4.80
2019-01-17T18:22:46.035Z,6.15
2019-01-17T18:25:15.181Z,4.67
2019-01-17T18:27:43.580Z,6.75
2019-01-17T18:30:26.159Z,7.85
2019-01-17T18:32:54.803Z,3.77
2019-01-17T18:35:23.303Z,5.22
2019-01-17T18:37:51.763Z,8.33
2019-01-17T18:40:21.247Z,7.97
2019-01-17T18:42:49.640Z,10.90
2019-01-17T18:45:20.939Z,4.35
2019-01-17T18:47:49.426Z,5.28
2019-01-17T18:50:20.933Z,8.58
2019-01-17T18:52:49.586Z,8.70
2019-01-17T18:55:17.999Z,4.65
2019-01-17T18:57:46.410Z,4.80
2019-01-17T19:00:19.480Z,5.00
2019-01-17T19:02:48.211Z,2.77
2019-01-17T19:05:16.855Z,6.10
2019-01-17T19:07:45.336Z,5.05
2019-01-17T19:10:15.083Z,5.37
2019-01-17T19:12:43.548Z,3.27
2019-01-17T19:15:18.194Z,6.40
2019-01-17T19:17:46.615Z,3.95
2019-01-17T19:20:16.869Z,4.15
2019-01-17T19:22:45.276Z,4.85
2019-01-17T19:25:14.248Z,6.58
2019-01-17T19:27:42.723Z,4.47
2019-01-17T19:30:14.324Z,2.70
2019-01-17T19:32:42.743Z,7.00
2019-01-17T19:35:11.168Z,4.75
2019-01-17T19:37:39.713Z,7.90
2019-01-17T19:40:11.481Z,5.28
2019-01-17T19:42:39.891Z,3.55
2019-01-17T19:45:11.163Z,6.62
2019-01-17T19:47:39.578Z,8.25
2019-01-17T19:50:17.171Z,3.00
2019-01-17T19:52:45.601Z,5.53
2019-01-17T19:55:13.991Z,4.25
2019-01-17T19:57:42.398Z,4.10
2019-01-17T20:00:18.926Z,9.98
2019-01-17T20:02:47.330Z,6.60
2019-01-17T20:05:21.590Z,5.00
2019-01-17T20:07:50.188Z,3.77
2019-01-17T20:10:21.223Z,3.52
2019-01-17T20:12:49.622Z,7.85
2019-01-17T20:15:18.171Z,10.85
2019-01-17T20:17:46.816Z,7.12
2019-01-17T20:20:17.333Z,7.00
2019-01-17T20:22:45.862Z,6.65
2019-01-17T20:25:14.817Z,6.70
2019-01-17T20:27:43.658Z,9.05
2019-01-17T20:30:20.861Z,10.75
2019-01-17T20:32:49.337Z,10.95
2019-01-17T20:35:17.791Z,10.63
2019-01-17T20:37:46.218Z,5.90
2019-01-17T20:40:17.378Z,5.83
2019-01-17T20:42:45.779Z,14.23
2019-01-17T20:45:14.187Z,10.63
2019-01-17T20:47:42.655Z,7.70
2019-01-17T20:50:14.147Z,7.42
2019-01-17T20:52:42.571Z,6.85
2019-01-17T20:55:12.369Z,11.75
2019-01-17T20:57:41.631Z,7.55
2019-01-17T21:00:31.787Z,8.70
2019-01-17T21:03:00.784Z,13.98
2019-01-17T21:05:29.564Z,16.10
2019-01-17T21:07:58.003Z,10.93
2019-01-17T21:10:26.441Z,8.78
2019-01-17T21:12:54.856Z,9.58
2019-01-17T21:15:23.546Z,8.45
2019-01-17T21:17:51.947Z,10.18
2019-01-17T21:20:20.508Z,9.28
2019-01-17T21:22:49.402Z,10.93
2019-01-17T21:25:20.191Z,10.68
2019-01-17T21:27:48.605Z,10.10
2019-01-17T21:30:25.472Z,10.63
2019-01-17T21:32:54.246Z,11.93
2019-01-17T21:35:22.729Z,8.88
2019-01-17T21:37:51.403Z,11.50
2019-01-17T21:40:24.716Z,8.15
2019-01-17T21:42:53.104Z,15.48
2019-01-17T21:45:21.587Z,8.80
2019-01-17T21:47:49.984Z,9.05
2019-01-17T21:50:21.469Z,9.53
2019-01-17T21:52:49.882Z,9.93
2019-01-17T21:55:18.543Z,12.25
2019-01-17T21:57:47.212Z,17.70
2019-01-17T22:00:23.919Z,13.83
2019-01-17T22:02:52.427Z,10.72
2019-01-17T22:05:21.119Z,12.50
2019-01-17T22:07:49.549Z,15.68
2019-01-17T22:10:19.302Z,21.57
2019-01-17T22:12:47.724Z,14.55
2019-01-17T22:15:24.449Z,14.43
2019-01-17T22:17:53.611Z,17.85
2019-01-17T22:20:22.099Z,21.35
2019-01-17T22:22:50.998Z,17.25
2019-01-17T22:25:20.663Z,17.55
2019-01-17T22:27:51.490Z,17.77
2019-01-17T22:30:22.720Z,20.65
2019-01-17T22:32:51.201Z,17.25
2019-01-17T22:35:19.843Z,15.75
2019-01-17T22:37:48.602Z,21.90
2019-01-17T22:40:17.907Z,19.37
2019-01-17T22:42:46.312Z,18.80
2019-01-17T22:45:17.656Z,23.07
2019-01-17T22:47:46.097Z,17.15
2019-01-17T22:50:16.791Z,17.45
2019-01-17T22:52:45.275Z,18.32
2019-01-17T22:55:14.044Z,20.25
2019-01-17T22:57:42.475Z,14.73
2019-01-17T23:00:42.745Z,18.87
2019-01-17T23:03:11.472Z,23.12
2019-01-17T23:05:40.722Z,13.50
2019-01-17T23:08:09.378Z,17.00
2019-01-17T23:10:38.034Z,17.00
2019-01-17T23:13:06.442Z,14.33
2019-01-17T23:15:35.002Z,14.13
2019-01-17T23:18:03.713Z,19.95
2019-01-17T23:20:32.352Z,17.32
2019-01-17T23:23:00.746Z,13.30
2019-01-17T23:25:29.159Z,14.20
2019-01-17T23:27:57.589Z,13.32
2019-01-17T23:30:25.973Z,12.43
2019-01-17T23:32:54.367Z,11.73
2019-01-17T23:35:22.759Z,15.00
2019-01-17T23:37:51.191Z,14.73
2019-01-17T23:40:19.582Z,12.00
2019-01-17T23:42:47.972Z,10.50
2019-01-17T23:45:16.357Z,16.45
2019-01-17T23:47:44.787Z,13.55
2019-01-17T23:50:13.652Z,16.77
2019-01-17T23:52:42.117Z,13.15
2019-01-17T23:55:10.576Z,12.53
2019-01-17T23:57:39.206Z,11.90
